sensor_id;sensor_type;location;lat;lon;timestamp;P1;durP1;ratioP1;P2;durP2;ratioP2
15498;SDS011;7851;52.260;6.030;2023-04-25T00:03:30;5.6;;;2.8;;
15498;SDS011;7851;52.260;6.030;2023-04-25T00:03:30;6.5;;;2.8;;
15498;SDS011;7851;52.260;6.030;2023-04-25T00:03:30;5.8;;;3.4;;
15498;SDS011;7851;52.260;6.030;2023-04-25T00:03:30;11.5;;;3.1;;
15498;SDS011;7851;52.260;6.030;2023-04-25T00:04:10;10.6;;;3.4;;
15498;SDS011;7851;52.260;6.030;2023-04-25T00:05:10;5.1;;;3;;
15498;SDS011;7851;52.260;6.030;2023-04-25T00:06:10;5.3;;;2.9;;
15498;SDS011;7851;52.260;6.030;2023-04-25T00:07:10;4.9;;;2.8;;
15498;SDS011;7851;52.260;6.030;2023-04-25T00:08:10;7.1;;;3;;
15498;SDS011;7851;52.260;6.030;2023-04-25T00:09:10;7.4;;;2.8;;
15498;SDS011;7851;52.260;6.030;2023-04-25T00:10:10;9.3;;;3;;
15498;SDS011;7851;52.260;6.030;2023-04-25T00:11:10;7.5;;;2.8;;
15498;SDS011;7851;52.260;6.030;2023-04-25T00:12:10;7.4;;;3.2;;
15498;SDS011;7851;52.260;6.030;2023-04-25T00:13:10;8.9;;;3.2;;
15498;SDS011;7851;52.260;6.030;2023-04-25T00:14:10;9.3;;;3.3;;
15498;SDS011;7851;52.260;6.030;2023-04-25T00:15:10;7.9;;;2.9;;
15498;SDS011;7851;52.260;6.030;2023-04-25T00:16:10;5;;;3;;
15498;SDS011;7851;52.260;6.030;2023-04-25T00:17:10;9.2;;;3.2;;
15498;SDS011;7851;52.260;6.030;2023-04-25T00:18:10;7.1;;;2.6;;
15498;SDS011;7851;52.260;6.030;2023-04-25T00:19:10;4.2;;;2.7;;
15498;SDS011;7851;52.260;6.030;2023-04-25T00:20:11;6.2;;;2.9;;
15498;SDS011;7851;52.260;6.030;2023-04-25T00:21:10;8.4;;;2.9;;
15498;SDS011;7851;52.260;6.030;2023-04-25T00:22:10;6.6;;;3;;
15498;SDS011;7851;52.260;6.030;2023-04-25T00:23:10;6.1;;;2.7;;
15498;SDS011;7851;52.260;6.030;2023-04-25T00:24:10;5.9;;;2.7;;
15498;SDS011;7851;52.260;6.030;2023-04-25T00:25:10;9;;;3;;
15498;SDS011;7851;52.260;6.030;2023-04-25T00:26:10;6.6;;;3;;
15498;SDS011;7851;52.260;6.030;2023-04-25T00:27:10;7.3;;;3;;
15498;SDS011;7851;52.260;6.030;2023-04-25T00:28:10;6.6;;;2.8;;
15498;SDS011;7851;52.260;6.030;2023-04-25T00:29:10;8.4;;;3;;
15498;SDS011;7851;52.260;6.030;2023-04-25T00:30:10;9.7;;;2.8;;
15498;SDS011;7851;52.260;6.030;2023-04-25T00:31:10;5.6;;;2.7;;
15498;SDS011;7851;52.260;6.030;2023-04-25T00:32:10;6.6;;;3;;
15498;SDS011;7851;52.260;6.030;2023-04-25T00:33:10;5.9;;;2.6;;
15498;SDS011;7851;52.260;6.030;2023-04-25T00:34:10;6.4;;;2.6;;
15498;SDS011;7851;52.260;6.030;2023-04-25T00:35:10;5;;;2.2;;
15498;SDS011;7851;52.260;6.030;2023-04-25T00:36:10;5.3;;;2.7;;
15498;SDS011;7851;52.260;6.030;2023-04-25T00:37:10;7.2;;;2.7;;
15498;SDS011;7851;52.260;6.030;2023-04-25T00:38:10;6.8;;;2.7;;
15498;SDS011;7851;52.260;6.030;2023-04-25T00:39:10;7.2;;;2.6;;
15498;SDS011;7851;52.260;6.030;2023-04-25T00:40:10;5.5;;;3;;
15498;SDS011;7851;52.260;6.030;2023-04-25T00:41:10;4.8;;;2.6;;
15498;SDS011;7851;52.260;6.030;2023-04-25T00:42:10;3.2;;;2.5;;
15498;SDS011;7851;52.260;6.030;2023-04-25T00:43:10;5.4;;;2.7;;
15498;SDS011;7851;52.260;6.030;2023-04-25T00:44:10;6.4;;;2.9;;
15498;SDS011;7851;52.260;6.030;2023-04-25T00:45:10;4.9;;;2.5;;
15498;SDS011;7851;52.260;6.030;2023-04-25T00:46:10;5.8;;;2.9;;
15498;SDS011;7851;52.260;6.030;2023-04-25T00:47:10;6.5;;;2.9;;
15498;SDS011;7851;52.260;6.030;2023-04-25T00:48:10;7.3;;;2.7;;
15498;SDS011;7851;52.260;6.030;2023-04-25T00:49:10;5.6;;;2.5;;
15498;SDS011;7851;52.260;6.030;2023-04-25T00:50:10;5.7;;;2.6;;
15498;SDS011;7851;52.260;6.030;2023-04-25T00:51:10;6.9;;;2.9;;
15498;SDS011;7851;52.260;6.030;2023-04-25T00:52:10;5.3;;;2.7;;
15498;SDS011;7851;52.260;6.030;2023-04-25T00:53:10;7.2;;;2.9;;
15498;SDS011;7851;52.260;6.030;2023-04-25T00:54:10;5;;;3;;
15498;SDS011;7851;52.260;6.030;2023-04-25T00:55:10;9.7;;;3.1;;
15498;SDS011;7851;52.260;6.030;2023-04-25T00:56:10;6.8;;;2.8;;
15498;SDS011;7851;52.260;6.030;2023-04-25T00:57:10;5.1;;;2.7;;
15498;SDS011;7851;52.260;6.030;2023-04-25T00:58:10;6;;;3.1;;
15498;SDS011;7851;52.260;6.030;2023-04-25T00:59:10;7.1;;;2.9;;
15498;SDS011;7851;52.260;6.030;2023-04-25T01:00:10;7.2;;;3.5;;
15498;SDS011;7851;52.260;6.030;2023-04-25T01:01:10;9.9;;;3.5;;
15498;SDS011;7851;52.260;6.030;2023-04-25T01:02:10;8.3;;;2.9;;
15498;SDS011;7851;52.260;6.030;2023-04-25T01:03:10;6.6;;;3.4;;
15498;SDS011;7851;52.260;6.030;2023-04-25T01:04:10;8.6;;;3.2;;
15498;SDS011;7851;52.260;6.030;2023-04-25T01:05:10;14;;;3.4;;
15498;SDS011;7851;52.260;6.030;2023-04-25T01:06:10;8.4;;;3.3;;
15498;SDS011;7851;52.260;6.030;2023-04-25T01:07:10;6.6;;;3.5;;
15498;SDS011;7851;52.260;6.030;2023-04-25T01:08:10;8.4;;;3.7;;
15498;SDS011;7851;52.260;6.030;2023-04-25T01:09:10;10;;;3.7;;
15498;SDS011;7851;52.260;6.030;2023-04-25T01:10:10;10.3;;;3.6;;
15498;SDS011;7851;52.260;6.030;2023-04-25T01:11:10;8.9;;;3.2;;
15498;SDS011;7851;52.260;6.030;2023-04-25T01:12:10;6.9;;;3.4;;
15498;SDS011;7851;52.260;6.030;2023-04-25T01:13:10;8.8;;;3.4;;
15498;SDS011;7851;52.260;6.030;2023-04-25T01:14:10;7.7;;;3.6;;
15498;SDS011;7851;52.260;6.030;2023-04-25T01:15:10;7.7;;;3.1;;
15498;SDS011;7851;52.260;6.030;2023-04-25T01:16:10;13.2;;;3.7;;
15498;SDS011;7851;52.260;6.030;2023-04-25T01:17:10;6.4;;;3;;
15498;SDS011;7851;52.260;6.030;2023-04-25T01:18:10;9;;;3.9;;
15498;SDS011;7851;52.260;6.030;2023-04-25T01:19:10;10.7;;;3.7;;
15498;SDS011;7851;52.260;6.030;2023-04-25T01:20:10;8.5;;;3.4;;
15498;SDS011;7851;52.260;6.030;2023-04-25T01:21:10;10;;;3.6;;
15498;SDS011;7851;52.260;6.030;2023-04-25T01:22:10;9.4;;;3.3;;
15498;SDS011;7851;52.260;6.030;2023-04-25T01:23:10;8.7;;;3.6;;
15498;SDS011;7851;52.260;6.030;2023-04-25T01:24:10;8.3;;;3.6;;
15498;SDS011;7851;52.260;6.030;2023-04-25T01:25:10;8.4;;;3.5;;
15498;SDS011;7851;52.260;6.030;2023-04-25T01:26:10;7.2;;;3.7;;
15498;SDS011;7851;52.260;6.030;2023-04-25T01:27:10;14.4;;;3.8;;
15498;SDS011;7851;52.260;6.030;2023-04-25T01:28:10;11.4;;;4.2;;
15498;SDS011;7851;52.260;6.030;2023-04-25T01:29:10;8.8;;;3.6;;
15498;SDS011;7851;52.260;6.030;2023-04-25T01:30:10;11.6;;;3.5;;
15498;SDS011;7851;52.260;6.030;2023-04-25T01:31:10;7.5;;;3.7;;
15498;SDS011;7851;52.260;6.030;2023-04-25T01:32:10;8.8;;;3.4;;
15498;SDS011;7851;52.260;6.030;2023-04-25T01:33:10;8.5;;;3.4;;
15498;SDS011;7851;52.260;6.030;2023-04-25T01:34:10;8;;;3.4;;
15498;SDS011;7851;52.260;6.030;2023-04-25T01:35:11;13;;;3.9;;
15498;SDS011;7851;52.260;6.030;2023-04-25T01:36:10;6.5;;;3.2;;
15498;SDS011;7851;52.260;6.030;2023-04-25T01:37:10;5;;;3.2;;
15498;SDS011;7851;52.260;6.030;2023-04-25T01:38:11;7.7;;;3.6;;
15498;SDS011;7851;52.260;6.030;2023-04-25T01:39:10;9.8;;;3.4;;
15498;SDS011;7851;52.260;6.030;2023-04-25T01:40:10;5.6;;;3.2;;
15498;SDS011;7851;52.260;6.030;2023-04-25T01:41:10;5.2;;;2.9;;
15498;SDS011;7851;52.260;6.030;2023-04-25T01:42:10;5.7;;;2.8;;
15498;SDS011;7851;52.260;6.030;2023-04-25T01:43:10;4.5;;;2.7;;
15498;SDS011;7851;52.260;6.030;2023-04-25T01:44:10;6.6;;;3.4;;
15498;SDS011;7851;52.260;6.030;2023-04-25T01:45:10;8.4;;;3.3;;
15498;SDS011;7851;52.260;6.030;2023-04-25T01:46:10;10.9;;;3.5;;
15498;SDS011;7851;52.260;6.030;2023-04-25T01:47:10;7.6;;;3.5;;
15498;SDS011;7851;52.260;6.030;2023-04-25T01:48:10;8.4;;;3.3;;
15498;SDS011;7851;52.260;6.030;2023-04-25T01:49:10;9.6;;;3.5;;
15498;SDS011;7851;52.260;6.030;2023-04-25T01:50:10;8.8;;;3.8;;
15498;SDS011;7851;52.260;6.030;2023-04-25T01:51:10;12.8;;;3.9;;
15498;SDS011;7851;52.260;6.030;2023-04-25T01:52:10;11.6;;;4;;
15498;SDS011;7851;52.260;6.030;2023-04-25T01:53:10;11.3;;;4.1;;
15498;SDS011;7851;52.260;6.030;2023-04-25T01:54:10;9.2;;;3.5;;
15498;SDS011;7851;52.260;6.030;2023-04-25T01:55:10;8.5;;;3.5;;
15498;SDS011;7851;52.260;6.030;2023-04-25T01:56:10;9.8;;;4.1;;
15498;SDS011;7851;52.260;6.030;2023-04-25T01:57:10;8;;;3.9;;
15498;SDS011;7851;52.260;6.030;2023-04-25T01:58:10;10.5;;;4;;
15498;SDS011;7851;52.260;6.030;2023-04-25T01:59:10;12;;;3.7;;
15498;SDS011;7851;52.260;6.030;2023-04-25T02:00:10;14.6;;;4.2;;
15498;SDS011;7851;52.260;6.030;2023-04-25T02:01:10;10.3;;;4.2;;
15498;SDS011;7851;52.260;6.030;2023-04-25T02:02:10;11.1;;;4.1;;
15498;SDS011;7851;52.260;6.030;2023-04-25T02:03:10;9.1;;;3.9;;
15498;SDS011;7851;52.260;6.030;2023-04-25T02:04:10;7;;;3.6;;
15498;SDS011;7851;52.260;6.030;2023-04-25T02:05:10;11.3;;;4.1;;
15498;SDS011;7851;52.260;6.030;2023-04-25T02:06:10;10.5;;;4.3;;
15498;SDS011;7851;52.260;6.030;2023-04-25T02:07:10;8.7;;;4;;
15498;SDS011;7851;52.260;6.030;2023-04-25T02:08:10;8.7;;;3.6;;
15498;SDS011;7851;52.260;6.030;2023-04-25T02:09:10;8.3;;;3.8;;
15498;SDS011;7851;52.260;6.030;2023-04-25T02:10:10;10;;;4.2;;
15498;SDS011;7851;52.260;6.030;2023-04-25T02:11:10;12.9;;;3.9;;
15498;SDS011;7851;52.260;6.030;2023-04-25T02:12:10;9.6;;;4.1;;
15498;SDS011;7851;52.260;6.030;2023-04-25T02:13:10;13;;;3.8;;
15498;SDS011;7851;52.260;6.030;2023-04-25T02:14:10;10.2;;;3.5;;
15498;SDS011;7851;52.260;6.030;2023-04-25T02:15:10;9.1;;;3.8;;
15498;SDS011;7851;52.260;6.030;2023-04-25T02:16:10;10.5;;;3.8;;
15498;SDS011;7851;52.260;6.030;2023-04-25T02:17:10;11.5;;;3.7;;
15498;SDS011;7851;52.260;6.030;2023-04-25T02:18:10;7.9;;;3.9;;
15498;SDS011;7851;52.260;6.030;2023-04-25T02:19:10;10.4;;;3.8;;
15498;SDS011;7851;52.260;6.030;2023-04-25T02:20:10;8.4;;;3.4;;
15498;SDS011;7851;52.260;6.030;2023-04-25T02:21:10;12;;;4;;
15498;SDS011;7851;52.260;6.030;2023-04-25T02:22:10;10.2;;;4;;
15498;SDS011;7851;52.260;6.030;2023-04-25T02:23:10;7.1;;;3.6;;
15498;SDS011;7851;52.260;6.030;2023-04-25T02:24:10;7.4;;;3.6;;
15498;SDS011;7851;52.260;6.030;2023-04-25T02:25:10;10.1;;;3.7;;
15498;SDS011;7851;52.260;6.030;2023-04-25T02:26:10;9;;;3.8;;
15498;SDS011;7851;52.260;6.030;2023-04-25T02:27:10;7.6;;;4;;
15498;SDS011;7851;52.260;6.030;2023-04-25T02:28:10;11.8;;;4.1;;
15498;SDS011;7851;52.260;6.030;2023-04-25T02:29:10;12.4;;;3.8;;
15498;SDS011;7851;52.260;6.030;2023-04-25T02:30:10;8.4;;;4;;
15498;SDS011;7851;52.260;6.030;2023-04-25T02:31:10;9.2;;;4;;
15498;SDS011;7851;52.260;6.030;2023-04-25T02:32:10;11.1;;;3.9;;
15498;SDS011;7851;52.260;6.030;2023-04-25T02:33:10;8.7;;;3.3;;
15498;SDS011;7851;52.260;6.030;2023-04-25T02:34:10;9;;;3.7;;
15498;SDS011;7851;52.260;6.030;2023-04-25T02:35:10;11;;;3.7;;
15498;SDS011;7851;52.260;6.030;2023-04-25T02:36:10;13.6;;;4.1;;
15498;SDS011;7851;52.260;6.030;2023-04-25T02:37:10;9.2;;;3.6;;
15498;SDS011;7851;52.260;6.030;2023-04-25T02:38:10;11.2;;;3.5;;
15498;SDS011;7851;52.260;6.030;2023-04-25T02:39:10;10.2;;;3.7;;
15498;SDS011;7851;52.260;6.030;2023-04-25T02:40:10;7.5;;;3.5;;
15498;SDS011;7851;52.260;6.030;2023-04-25T02:41:10;6.6;;;3.3;;
15498;SDS011;7851;52.260;6.030;2023-04-25T02:42:10;5.8;;;3.5;;
15498;SDS011;7851;52.260;6.030;2023-04-25T02:43:10;8.6;;;3.5;;
15498;SDS011;7851;52.260;6.030;2023-04-25T02:44:10;9.7;;;3.4;;
15498;SDS011;7851;52.260;6.030;2023-04-25T02:45:10;7.5;;;3.1;;
15498;SDS011;7851;52.260;6.030;2023-04-25T02:46:10;13.4;;;3.7;;
15498;SDS011;7851;52.260;6.030;2023-04-25T02:47:10;14;;;4;;
15498;SDS011;7851;52.260;6.030;2023-04-25T02:48:10;6.6;;;3.5;;
15498;SDS011;7851;52.260;6.030;2023-04-25T02:49:10;9.2;;;3.4;;
15498;SDS011;7851;52.260;6.030;2023-04-25T02:50:10;10.3;;;3.6;;
15498;SDS011;7851;52.260;6.030;2023-04-25T02:51:10;7.6;;;3.6;;
15498;SDS011;7851;52.260;6.030;2023-04-25T02:52:10;7.8;;;3.3;;
15498;SDS011;7851;52.260;6.030;2023-04-25T02:53:10;11;;;3.9;;
15498;SDS011;7851;52.260;6.030;2023-04-25T02:54:10;8.9;;;3.4;;
15498;SDS011;7851;52.260;6.030;2023-04-25T02:55:10;7;;;3.2;;
15498;SDS011;7851;52.260;6.030;2023-04-25T02:56:10;6.4;;;3.5;;
15498;SDS011;7851;52.260;6.030;2023-04-25T02:57:10;5.8;;;3.1;;
15498;SDS011;7851;52.260;6.030;2023-04-25T02:58:10;7.4;;;3.2;;
15498;SDS011;7851;52.260;6.030;2023-04-25T02:59:10;6.4;;;3.5;;
15498;SDS011;7851;52.260;6.030;2023-04-25T03:00:10;8.7;;;3.4;;
15498;SDS011;7851;52.260;6.030;2023-04-25T03:01:10;8.7;;;3.5;;
15498;SDS011;7851;52.260;6.030;2023-04-25T03:02:10;4.8;;;2.9;;
15498;SDS011;7851;52.260;6.030;2023-04-25T03:03:10;7.3;;;3.6;;
15498;SDS011;7851;52.260;6.030;2023-04-25T03:04:10;6.9;;;3;;
15498;SDS011;7851;52.260;6.030;2023-04-25T03:05:10;9.1;;;3.6;;
15498;SDS011;7851;52.260;6.030;2023-04-25T03:06:10;8;;;3.4;;
15498;SDS011;7851;52.260;6.030;2023-04-25T03:07:10;5.2;;;3.2;;
15498;SDS011;7851;52.260;6.030;2023-04-25T03:08:10;5.3;;;3.3;;
15498;SDS011;7851;52.260;6.030;2023-04-25T03:09:10;9.7;;;3.7;;
15498;SDS011;7851;52.260;6.030;2023-04-25T03:10:10;6.1;;;3.1;;
15498;SDS011;7851;52.260;6.030;2023-04-25T03:11:10;8.9;;;3.1;;
15498;SDS011;7851;52.260;6.030;2023-04-25T03:12:10;6.2;;;3.2;;
15498;SDS011;7851;52.260;6.030;2023-04-25T03:13:10;8.1;;;3;;
15498;SDS011;7851;52.260;6.030;2023-04-25T03:14:10;7.6;;;3.3;;
15498;SDS011;7851;52.260;6.030;2023-04-25T03:15:10;10.6;;;3.2;;
15498;SDS011;7851;52.260;6.030;2023-04-25T03:16:10;7.8;;;3.2;;
15498;SDS011;7851;52.260;6.030;2023-04-25T03:17:10;10.1;;;3;;
15498;SDS011;7851;52.260;6.030;2023-04-25T03:18:10;5.9;;;3.4;;
15498;SDS011;7851;52.260;6.030;2023-04-25T03:19:10;7.5;;;3;;
15498;SDS011;7851;52.260;6.030;2023-04-25T03:20:10;7.3;;;3;;
15498;SDS011;7851;52.260;6.030;2023-04-25T03:21:10;5.8;;;3.2;;
15498;SDS011;7851;52.260;6.030;2023-04-25T03:22:10;5.8;;;3.1;;
15498;SDS011;7851;52.260;6.030;2023-04-25T03:23:10;7;;;3.5;;
15498;SDS011;7851;52.260;6.030;2023-04-25T03:24:10;6.3;;;3.2;;
15498;SDS011;7851;52.260;6.030;2023-04-25T03:25:10;12.5;;;3.7;;
15498;SDS011;7851;52.260;6.030;2023-04-25T03:26:10;11.6;;;3.8;;
15498;SDS011;7851;52.260;6.030;2023-04-25T03:27:10;9.5;;;3.5;;
15498;SDS011;7851;52.260;6.030;2023-04-25T03:28:10;8.3;;;3.3;;
15498;SDS011;7851;52.260;6.030;2023-04-25T03:29:10;9.6;;;3.5;;
15498;SDS011;7851;52.260;6.030;2023-04-25T03:30:10;9.4;;;3.2;;
15498;SDS011;7851;52.260;6.030;2023-04-25T03:31:10;5.8;;;2.8;;
15498;SDS011;7851;52.260;6.030;2023-04-25T03:32:10;9.3;;;3.3;;
15498;SDS011;7851;52.260;6.030;2023-04-25T03:33:10;7.4;;;3.3;;
15498;SDS011;7851;52.260;6.030;2023-04-25T03:34:10;5;;;2.9;;
15498;SDS011;7851;52.260;6.030;2023-04-25T03:35:10;9.2;;;3.6;;
15498;SDS011;7851;52.260;6.030;2023-04-25T03:36:10;8.6;;;3.6;;
15498;SDS011;7851;52.260;6.030;2023-04-25T03:37:10;6.7;;;3.5;;
15498;SDS011;7851;52.260;6.030;2023-04-25T03:38:10;9.5;;;3.5;;
15498;SDS011;7851;52.260;6.030;2023-04-25T03:39:10;7.7;;;3.4;;
15498;SDS011;7851;52.260;6.030;2023-04-25T03:40:10;7.7;;;3.3;;
15498;SDS011;7851;52.260;6.030;2023-04-25T03:41:10;18.7;;;3.7;;
15498;SDS011;7851;52.260;6.030;2023-04-25T03:42:10;10;;;3.3;;
15498;SDS011;7851;52.260;6.030;2023-04-25T03:43:10;10.6;;;3.6;;
15498;SDS011;7851;52.260;6.030;2023-04-25T03:44:10;8.3;;;3.3;;
15498;SDS011;7851;52.260;6.030;2023-04-25T03:45:10;12.8;;;3.5;;
15498;SDS011;7851;52.260;6.030;2023-04-25T03:46:10;7.2;;;3.4;;
15498;SDS011;7851;52.260;6.030;2023-04-25T03:47:10;8.1;;;2.9;;
15498;SDS011;7851;52.260;6.030;2023-04-25T03:48:11;5.8;;;2.9;;
15498;SDS011;7851;52.260;6.030;2023-04-25T03:49:10;10;;;3.5;;
15498;SDS011;7851;52.260;6.030;2023-04-25T03:50:10;8.8;;;3.2;;
15498;SDS011;7851;52.260;6.030;2023-04-25T03:51:10;8.2;;;3.6;;
15498;SDS011;7851;52.260;6.030;2023-04-25T03:52:10;10.4;;;3.7;;
15498;SDS011;7851;52.260;6.030;2023-04-25T03:53:10;9.9;;;3.2;;
15498;SDS011;7851;52.260;6.030;2023-04-25T03:54:10;12.5;;;3.5;;
15498;SDS011;7851;52.260;6.030;2023-04-25T03:55:10;7.6;;;3.3;;
15498;SDS011;7851;52.260;6.030;2023-04-25T03:56:10;8.3;;;3.3;;
15498;SDS011;7851;52.260;6.030;2023-04-25T03:57:10;10.3;;;3;;
15498;SDS011;7851;52.260;6.030;2023-04-25T03:58:10;4.8;;;2.7;;
15498;SDS011;7851;52.260;6.030;2023-04-25T03:59:10;4.8;;;2.6;;
15498;SDS011;7851;52.260;6.030;2023-04-25T04:00:10;8.1;;;3.1;;
15498;SDS011;7851;52.260;6.030;2023-04-25T04:01:10;6.3;;;3;;
15498;SDS011;7851;52.260;6.030;2023-04-25T04:02:10;4.5;;;2.7;;
15498;SDS011;7851;52.260;6.030;2023-04-25T04:03:10;8.6;;;2.7;;
15498;SDS011;7851;52.260;6.030;2023-04-25T04:04:10;4.5;;;2.7;;
15498;SDS011;7851;52.260;6.030;2023-04-25T04:05:10;5.7;;;2.7;;
15498;SDS011;7851;52.260;6.030;2023-04-25T04:06:10;8.7;;;3.5;;
15498;SDS011;7851;52.260;6.030;2023-04-25T04:07:10;6.6;;;2.9;;
15498;SDS011;7851;52.260;6.030;2023-04-25T04:08:10;5.8;;;3.1;;
15498;SDS011;7851;52.260;6.030;2023-04-25T04:09:10;9.1;;;3.1;;
15498;SDS011;7851;52.260;6.030;2023-04-25T04:10:10;9.6;;;3.3;;
15498;SDS011;7851;52.260;6.030;2023-04-25T04:11:10;8.5;;;3.2;;
15498;SDS011;7851;52.260;6.030;2023-04-25T04:12:10;7.3;;;3;;
15498;SDS011;7851;52.260;6.030;2023-04-25T04:13:10;5.8;;;2.9;;
15498;SDS011;7851;52.260;6.030;2023-04-25T04:14:10;6.1;;;2.9;;
15498;SDS011;7851;52.260;6.030;2023-04-25T04:15:10;6;;;3.1;;
15498;SDS011;7851;52.260;6.030;2023-04-25T04:16:10;5.1;;;3.2;;
15498;SDS011;7851;52.260;6.030;2023-04-25T04:17:10;8.2;;;2.9;;
15498;SDS011;7851;52.260;6.030;2023-04-25T04:18:10;7;;;3.2;;
15498;SDS011;7851;52.260;6.030;2023-04-25T04:19:10;7.7;;;3.4;;
15498;SDS011;7851;52.260;6.030;2023-04-25T04:20:10;6.4;;;3.1;;
15498;SDS011;7851;52.260;6.030;2023-04-25T04:21:10;4.6;;;3.1;;
15498;SDS011;7851;52.260;6.030;2023-04-25T04:22:10;7.6;;;3.3;;
15498;SDS011;7851;52.260;6.030;2023-04-25T04:23:10;5.8;;;2.9;;
15498;SDS011;7851;52.260;6.030;2023-04-25T04:24:10;7.5;;;2.8;;
15498;SDS011;7851;52.260;6.030;2023-04-25T04:25:10;6.7;;;3.2;;
15498;SDS011;7851;52.260;6.030;2023-04-25T04:26:10;8.6;;;3.4;;
15498;SDS011;7851;52.260;6.030;2023-04-25T04:27:10;7.7;;;3.2;;
15498;SDS011;7851;52.260;6.030;2023-04-25T04:28:10;10.3;;;3.8;;
15498;SDS011;7851;52.260;6.030;2023-04-25T04:29:10;6.2;;;3.2;;
15498;SDS011;7851;52.260;6.030;2023-04-25T04:30:10;7.4;;;3;;
15498;SDS011;7851;52.260;6.030;2023-04-25T04:31:10;7.3;;;2.8;;
15498;SDS011;7851;52.260;6.030;2023-04-25T04:32:10;8.1;;;3.4;;
15498;SDS011;7851;52.260;6.030;2023-04-25T04:33:10;6;;;3;;
15498;SDS011;7851;52.260;6.030;2023-04-25T04:34:10;9.8;;;3.2;;
15498;SDS011;7851;52.260;6.030;2023-04-25T04:35:10;8.6;;;3.4;;
15498;SDS011;7851;52.260;6.030;2023-04-25T04:36:10;7;;;2.8;;
15498;SDS011;7851;52.260;6.030;2023-04-25T04:37:10;9.9;;;3.4;;
15498;SDS011;7851;52.260;6.030;2023-04-25T04:38:10;9.6;;;2.9;;
15498;SDS011;7851;52.260;6.030;2023-04-25T04:39:10;8.2;;;3.2;;
15498;SDS011;7851;52.260;6.030;2023-04-25T04:40:10;6.3;;;2.8;;
15498;SDS011;7851;52.260;6.030;2023-04-25T04:41:10;7.4;;;3.4;;
15498;SDS011;7851;52.260;6.030;2023-04-25T04:42:10;4.2;;;2.7;;
15498;SDS011;7851;52.260;6.030;2023-04-25T04:43:10;5.7;;;2.8;;
15498;SDS011;7851;52.260;6.030;2023-04-25T04:44:10;7.5;;;3;;
15498;SDS011;7851;52.260;6.030;2023-04-25T04:45:10;9.2;;;3.2;;
15498;SDS011;7851;52.260;6.030;2023-04-25T04:46:10;8.6;;;3;;
15498;SDS011;7851;52.260;6.030;2023-04-25T04:47:10;9.9;;;3.4;;
15498;SDS011;7851;52.260;6.030;2023-04-25T04:48:10;8.6;;;3.2;;
15498;SDS011;7851;52.260;6.030;2023-04-25T04:49:10;8.4;;;3;;
15498;SDS011;7851;52.260;6.030;2023-04-25T04:50:10;8.2;;;3.2;;
15498;SDS011;7851;52.260;6.030;2023-04-25T04:51:10;11;;;3.3;;
15498;SDS011;7851;52.260;6.030;2023-04-25T04:52:10;4.9;;;2.4;;
15498;SDS011;7851;52.260;6.030;2023-04-25T04:53:10;4.8;;;2.8;;
15498;SDS011;7851;52.260;6.030;2023-04-25T04:54:10;8.5;;;2.7;;
15498;SDS011;7851;52.260;6.030;2023-04-25T04:55:10;5.5;;;2.6;;
15498;SDS011;7851;52.260;6.030;2023-04-25T04:56:10;6.9;;;3;;
15498;SDS011;7851;52.260;6.030;2023-04-25T04:57:10;6.9;;;2.6;;
15498;SDS011;7851;52.260;6.030;2023-04-25T04:58:10;5.3;;;2.6;;
15498;SDS011;7851;52.260;6.030;2023-04-25T04:59:10;10;;;2.7;;
15498;SDS011;7851;52.260;6.030;2023-04-25T05:00:10;3.7;;;2.5;;
15498;SDS011;7851;52.260;6.030;2023-04-25T05:01:10;3.3;;;2.4;;
15498;SDS011;7851;52.260;6.030;2023-04-25T05:02:10;6.4;;;2.6;;
15498;SDS011;7851;52.260;6.030;2023-04-25T05:03:10;4.4;;;2.1;;
15498;SDS011;7851;52.260;6.030;2023-04-25T05:04:10;6.1;;;2.4;;
15498;SDS011;7851;52.260;6.030;2023-04-25T05:05:10;3.9;;;2.4;;
15498;SDS011;7851;52.260;6.030;2023-04-25T05:06:10;5.1;;;2.2;;
15498;SDS011;7851;52.260;6.030;2023-04-25T05:07:10;7;;;2.4;;
15498;SDS011;7851;52.260;6.030;2023-04-25T05:08:10;6.6;;;2.5;;
15498;SDS011;7851;52.260;6.030;2023-04-25T05:09:10;6.2;;;2.2;;
15498;SDS011;7851;52.260;6.030;2023-04-25T05:10:10;5;;;1.9;;
15498;SDS011;7851;52.260;6.030;2023-04-25T05:11:10;4.7;;;2.2;;
15498;SDS011;7851;52.260;6.030;2023-04-25T05:12:10;3.6;;;2.1;;
15498;SDS011;7851;52.260;6.030;2023-04-25T05:13:10;4.1;;;2.3;;
15498;SDS011;7851;52.260;6.030;2023-04-25T05:14:10;6.1;;;2.4;;
15498;SDS011;7851;52.260;6.030;2023-04-25T05:15:10;3.7;;;2.1;;
15498;SDS011;7851;52.260;6.030;2023-04-25T05:16:10;5.1;;;2.1;;
15498;SDS011;7851;52.260;6.030;2023-04-25T05:17:10;5;;;2.5;;
15498;SDS011;7851;52.260;6.030;2023-04-25T05:18:10;5.7;;;2.4;;
15498;SDS011;7851;52.260;6.030;2023-04-25T05:19:10;2.4;;;2;;
15498;SDS011;7851;52.260;6.030;2023-04-25T05:20:10;9.2;;;2.4;;
15498;SDS011;7851;52.260;6.030;2023-04-25T05:21:10;5.7;;;2.1;;
15498;SDS011;7851;52.260;6.030;2023-04-25T05:22:10;4.8;;;1.9;;
15498;SDS011;7851;52.260;6.030;2023-04-25T05:23:10;3.5;;;2.2;;
15498;SDS011;7851;52.260;6.030;2023-04-25T05:24:10;3.4;;;2.1;;
15498;SDS011;7851;52.260;6.030;2023-04-25T05:25:10;4.6;;;2.2;;
15498;SDS011;7851;52.260;6.030;2023-04-25T05:26:10;6.5;;;2.2;;
15498;SDS011;7851;52.260;6.030;2023-04-25T05:27:10;5.7;;;2.2;;
15498;SDS011;7851;52.260;6.030;2023-04-25T05:28:10;6.2;;;2.3;;
15498;SDS011;7851;52.260;6.030;2023-04-25T05:29:10;7.2;;;2.1;;
15498;SDS011;7851;52.260;6.030;2023-04-25T05:30:10;5.9;;;2.4;;
15498;SDS011;7851;52.260;6.030;2023-04-25T05:31:10;3.8;;;2.1;;
15498;SDS011;7851;52.260;6.030;2023-04-25T05:32:10;4.6;;;2;;
15498;SDS011;7851;52.260;6.030;2023-04-25T05:33:10;4;;;2;;
15498;SDS011;7851;52.260;6.030;2023-04-25T05:34:10;6.1;;;2.3;;
15498;SDS011;7851;52.260;6.030;2023-04-25T05:35:10;4.5;;;2.1;;
15498;SDS011;7851;52.260;6.030;2023-04-25T05:36:10;3.9;;;2.1;;
15498;SDS011;7851;52.260;6.030;2023-04-25T05:37:10;7.8;;;2.4;;
15498;SDS011;7851;52.260;6.030;2023-04-25T05:38:10;4.3;;;2.2;;
15498;SDS011;7851;52.260;6.030;2023-04-25T05:39:10;3.8;;;1.9;;
15498;SDS011;7851;52.260;6.030;2023-04-25T05:40:10;4;;;2;;
15498;SDS011;7851;52.260;6.030;2023-04-25T05:41:10;4.7;;;1.9;;
15498;SDS011;7851;52.260;6.030;2023-04-25T05:42:10;4.3;;;2.1;;
15498;SDS011;7851;52.260;6.030;2023-04-25T05:43:10;6.4;;;2.2;;
15498;SDS011;7851;52.260;6.030;2023-04-25T05:44:10;3.9;;;2.1;;
15498;SDS011;7851;52.260;6.030;2023-04-25T05:45:10;4.2;;;2.2;;
15498;SDS011;7851;52.260;6.030;2023-04-25T05:46:10;4.1;;;2.2;;
15498;SDS011;7851;52.260;6.030;2023-04-25T05:47:10;4.4;;;2.8;;
15498;SDS011;7851;52.260;6.030;2023-04-25T05:48:10;5.4;;;2.7;;
15498;SDS011;7851;52.260;6.030;2023-04-25T05:49:10;5.2;;;2.8;;
15498;SDS011;7851;52.260;6.030;2023-04-25T05:50:10;5.8;;;2.8;;
15498;SDS011;7851;52.260;6.030;2023-04-25T05:51:10;2.6;;;2.4;;
15498;SDS011;7851;52.260;6.030;2023-04-25T05:52:10;6.7;;;2.9;;
15498;SDS011;7851;52.260;6.030;2023-04-25T05:53:10;5.2;;;2.8;;
15498;SDS011;7851;52.260;6.030;2023-04-25T05:54:10;4.5;;;2.8;;
15498;SDS011;7851;52.260;6.030;2023-04-25T05:55:10;3.6;;;2.6;;
15498;SDS011;7851;52.260;6.030;2023-04-25T05:56:10;5.2;;;2.7;;
15498;SDS011;7851;52.260;6.030;2023-04-25T05:57:17;5.1;;;2.8;;
15498;SDS011;7851;52.260;6.030;2023-04-25T05:58:10;7.6;;;3.1;;
15498;SDS011;7851;52.260;6.030;2023-04-25T05:59:10;3.2;;;2.9;;
15498;SDS011;7851;52.260;6.030;2023-04-25T06:00:11;7.4;;;3;;
15498;SDS011;7851;52.260;6.030;2023-04-25T06:01:10;3.9;;;2.9;;
15498;SDS011;7851;52.260;6.030;2023-04-25T06:02:10;4.4;;;3.1;;
15498;SDS011;7851;52.260;6.030;2023-04-25T06:03:10;4.3;;;3.1;;
15498;SDS011;7851;52.260;6.030;2023-04-25T06:04:10;4.6;;;2.7;;
15498;SDS011;7851;52.260;6.030;2023-04-25T06:05:10;4.1;;;2.5;;
15498;SDS011;7851;52.260;6.030;2023-04-25T06:06:10;5.9;;;2.9;;
15498;SDS011;7851;52.260;6.030;2023-04-25T06:07:10;4.2;;;2.5;;
15498;SDS011;7851;52.260;6.030;2023-04-25T06:08:10;3.9;;;3;;
15498;SDS011;7851;52.260;6.030;2023-04-25T06:09:10;4.7;;;3.3;;
15498;SDS011;7851;52.260;6.030;2023-04-25T06:10:10;4.3;;;3.2;;
15498;SDS011;7851;52.260;6.030;2023-04-25T06:11:10;4.7;;;3;;
15498;SDS011;7851;52.260;6.030;2023-04-25T06:12:10;4.5;;;2.6;;
15498;SDS011;7851;52.260;6.030;2023-04-25T06:13:10;5.2;;;2.8;;
15498;SDS011;7851;52.260;6.030;2023-04-25T06:14:10;8.1;;;3.1;;
15498;SDS011;7851;52.260;6.030;2023-04-25T06:15:10;9.8;;;3.2;;
15498;SDS011;7851;52.260;6.030;2023-04-25T06:16:10;10.2;;;3.6;;
15498;SDS011;7851;52.260;6.030;2023-04-25T06:17:10;6.5;;;3.1;;
15498;SDS011;7851;52.260;6.030;2023-04-25T06:18:10;3.6;;;2.8;;
15498;SDS011;7851;52.260;6.030;2023-04-25T06:19:10;4.4;;;3;;
15498;SDS011;7851;52.260;6.030;2023-04-25T06:20:10;3.6;;;3.2;;